Time;durP1;ratioP1;P1;durP2;ratioP2;P2;SDS_P1;SDS_P2;PMS_P1;PMS_P2;Temp;Humidity;BMP_temperature;BMP_pressure;BME280_temperature;BME280_humidity;BME280_pressure;Samples;Min_cycle;Max_cycle;Signal;HPM_P1;HPM_P2
2022/07/17 00:01:49;;;;;;;23.65;3.35;;;;;;;;;;5056939;28;20014;-76
2022/07/17 00:04:15;;;;;;;20.50;3.90;;;;;;;;;;5051861;28;20045;-76
2022/07/17 00:06:41;;;;;;;15.52;3.38;;;;;;;;;;5050543;28;20025;-75
2022/07/17 00:09:07;;;;;;;15.60;3.08;;;;;;;;;;5054120;28;20013;-76
2022/07/17 00:11:33;;;;;;;19.65;3.33;;;;;;;;;;5049011;28;20497;-75
2022/07/17 00:14:00;;;;;;;19.80;3.22;;;;;;;;;;5043162;28;20186;-76
2022/07/17 00:16:26;;;;;;;18.45;3.17;;;;;;;;;;5052833;28;20045;-75
2022/07/17 00:18:52;;;;;;;15.15;3.55;;;;;;;;;;5057964;28;20013;-74
2022/07/17 00:21:18;;;;;;;18.90;2.90;;;;;;;;;;5039135;28;20075;-77
2022/07/17 00:23:44;;;;;;;15.77;3.08;;;;;;;;;;5039267;28;20533;-74
2022/07/17 00:26:10;;;;;;;15.75;3.10;;;;;;;;;;5038815;28;20025;-75
2022/07/17 00:28:36;;;;;;;12.27;3.30;;;;;;;;;;5038496;28;20036;-75
2022/07/17 00:31:02;;;;;;;19.05;2.78;;;;;;;;;;5037870;28;20032;-76
2022/07/17 00:33:28;;;;;;;13.77;2.85;;;;;;;;;;5039649;28;20025;-76
2022/07/17 00:35:54;;;;;;;20.42;3.45;;;;;;;;;;5039341;28;20025;-76
2022/07/17 00:38:20;;;;;;;11.70;2.60;;;;;;;;;;5039608;28;20057;-76
2022/07/17 00:40:46;;;;;;;17.40;3.00;;;;;;;;;;5036198;28;20026;-75
2022/07/17 00:43:12;;;;;;;14.63;3.05;;;;;;;;;;5037499;28;20029;-76
2022/07/17 00:45:38;;;;;;;17.98;3.20;;;;;;;;;;5036415;28;20033;-76
2022/07/17 00:48:05;;;;;;;16.75;3.15;;;;;;;;;;5036823;28;20034;-75
2022/07/17 00:50:35;;;;;;;16.38;3.67;;;;;;;;;;5036941;28;20112;-76
2022/07/17 00:53:01;;;;;;;18.30;3.35;;;;;;;;;;5036101;28;20107;-74
2022/07/17 00:55:28;;;;;;;19.05;3.30;;;;;;;;;;5035793;28;20035;-76
2022/07/17 00:57:55;;;;;;;18.92;3.55;;;;;;;;;;5035358;28;20080;-75
2022/07/17 01:00:22;;;;;;;18.80;3.50;;;;;;;;;;5036528;28;20097;-77
2022/07/17 01:02:49;;;;;;;19.50;3.40;;;;;;;;;;5036478;28;20026;-75
2022/07/17 01:05:15;;;;;;;17.00;3.67;;;;;;;;;;5036059;28;20409;-75
2022/07/17 01:07:42;;;;;;;17.25;3.05;;;;;;;;;;5034958;28;20021;-76
2022/07/17 01:10:08;;;;;;;15.63;3.38;;;;;;;;;;5035078;28;20486;-76
2022/07/17 01:12:34;;;;;;;18.02;3.15;;;;;;;;;;5036661;28;20029;-77
2022/07/17 01:15:01;;;;;;;22.55;3.58;;;;;;;;;;5036664;28;20033;-76
2022/07/17 01:17:27;;;;;;;11.50;2.83;;;;;;;;;;5036086;28;20034;-76
2022/07/17 01:19:53;;;;;;;23.40;4.15;;;;;;;;;;5035290;28;20091;-76
2022/07/17 01:22:20;;;;;;;17.35;3.22;;;;;;;;;;5034740;28;20048;-76
2022/07/17 01:24:46;;;;;;;17.17;3.83;;;;;;;;;;5035846;28;20390;-76
2022/07/17 01:27:12;;;;;;;18.80;3.28;;;;;;;;;;5036231;28;20025;-77
2022/07/17 01:29:39;;;;;;;19.48;3.60;;;;;;;;;;5035917;28;20470;-77
2022/07/17 01:32:05;;;;;;;15.35;3.15;;;;;;;;;;5035693;28;20037;-76
2022/07/17 01:34:32;;;;;;;18.17;3.75;;;;;;;;;;5035842;28;20032;-76
2022/07/17 01:36:59;;;;;;;19.58;3.15;;;;;;;;;;5033545;28;20041;-76
2022/07/17 01:42:10;;;;;;;25.85;3.95;;;;;;;;;;5037797;28;20080;-76
2022/07/17 01:44:36;;;;;;;11.75;3.05;;;;;;;;;;5036585;28;20074;-76
2022/07/17 01:47:02;;;;;;;19.60;3.15;;;;;;;;;;5036174;28;20085;-76
2022/07/17 01:49:28;;;;;;;21.98;3.33;;;;;;;;;;5036662;28;20040;-76
2022/07/17 01:51:57;;;;;;;14.77;3.33;;;;;;;;;;5037618;28;20033;-76
2022/07/17 01:54:23;;;;;;;21.70;3.08;;;;;;;;;;5039155;28;20052;-76
2022/07/17 01:56:49;;;;;;;14.80;3.42;;;;;;;;;;5038743;28;20059;-76
2022/07/17 01:59:15;;;;;;;16.83;3.42;;;;;;;;;;5034470;28;20022;-76
2022/07/17 02:01:41;;;;;;;11.15;2.58;;;;;;;;;;5033982;28;20022;-76
2022/07/17 02:04:06;;;;;;;16.75;3.53;;;;;;;;;;5035168;28;20030;-77
2022/07/17 02:06:32;;;;;;;18.13;2.70;;;;;;;;;;5033740;28;20025;-76
2022/07/17 02:08:58;;;;;;;18.50;3.08;;;;;;;;;;5034714;28;20030;-76
2022/07/17 02:11:25;;;;;;;13.75;2.97;;;;;;;;;;5039687;28;20030;-75
2022/07/17 02:13:50;;;;;;;14.30;2.78;;;;;;;;;;5035989;28;20021;-76
2022/07/17 02:16:16;;;;;;;17.30;3.28;;;;;;;;;;5035037;28;20040;-76
2022/07/17 02:18:42;;;;;;;23.40;3.80;;;;;;;;;;5035254;28;20036;-76
2022/07/17 02:21:09;;;;;;;17.80;2.95;;;;;;;;;;5036185;28;20021;-75
2022/07/17 02:23:34;;;;;;;16.50;3.33;;;;;;;;;;5035377;28;20079;-76
2022/07/17 02:26:00;;;;;;;22.45;3.58;;;;;;;;;;5034305;28;20029;-75
2022/07/17 02:28:26;;;;;;;18.00;3.50;;;;;;;;;;5034510;28;20026;-75
2022/07/17 02:30:52;;;;;;;14.98;2.95;;;;;;;;;;5035655;28;20022;-75
2022/07/17 02:33:18;;;;;;;12.13;2.90;;;;;;;;;;5035398;28;20032;-74
2022/07/17 02:35:44;;;;;;;15.05;2.88;;;;;;;;;;5035160;28;20080;-75
2022/07/17 02:38:10;;;;;;;15.27;2.80;;;;;;;;;;5034034;28;20435;-76
2022/07/17 02:40:36;;;;;;;14.80;3.05;;;;;;;;;;5037290;28;20029;-76
2022/07/17 02:43:02;;;;;;;14.52;2.80;;;;;;;;;;5037407;28;20052;-75
2022/07/17 02:45:28;;;;;;;26.52;3.40;;;;;;;;;;5039456;28;20398;-76
2022/07/17 02:47:54;;;;;;;12.32;2.70;;;;;;;;;;5040289;28;20044;-76
2022/07/17 02:50:21;;;;;;;20.08;3.25;;;;;;;;;;5042862;28;20033;-76
2022/07/17 02:52:49;;;;;;;13.77;2.90;;;;;;;;;;5039132;28;20032;-75
2022/07/17 02:55:15;;;;;;;14.75;3.05;;;;;;;;;;5037048;28;20466;-75
2022/07/17 02:57:41;;;;;;;16.63;2.88;;;;;;;;;;5036554;28;20087;-76
2022/07/17 03:00:09;;;;;;;15.73;2.60;;;;;;;;;;5038882;28;20022;-76
2022/07/17 03:02:36;;;;;;;14.18;2.92;;;;;;;;;;5037173;28;20558;-75
2022/07/17 03:05:02;;;;;;;21.75;3.28;;;;;;;;;;5037473;28;20030;-74
2022/07/17 03:07:29;;;;;;;16.20;2.90;;;;;;;;;;5049762;28;20076;-76
2022/07/17 03:09:55;;;;;;;15.68;2.83;;;;;;;;;;5050022;28;20033;-75
2022/07/17 03:12:21;;;;;;;15.07;2.80;;;;;;;;;;5048734;28;20022;-77
2022/07/17 03:14:46;;;;;;;13.90;2.97;;;;;;;;;;5032075;28;20029;-77
2022/07/17 03:17:12;;;;;;;18.30;2.80;;;;;;;;;;5032379;28;20118;-77
2022/07/17 03:19:38;;;;;;;16.13;3.08;;;;;;;;;;5032898;28;20080;-77
2022/07/17 03:22:05;;;;;;;21.60;3.03;;;;;;;;;;5033509;28;20036;-76
2022/07/17 03:24:31;;;;;;;11.65;3.00;;;;;;;;;;5031775;28;20036;-75
2022/07/17 03:26:57;;;;;;;20.67;2.85;;;;;;;;;;5031331;28;20030;-76
2022/07/17 03:29:23;;;;;;;20.50;3.75;;;;;;;;;;5032694;28;20029;-77
2022/07/17 03:31:49;;;;;;;12.00;2.63;;;;;;;;;;5035168;28;20034;-77
2022/07/17 03:34:15;;;;;;;16.48;3.15;;;;;;;;;;5042989;28;20025;-77
2022/07/17 03:36:41;;;;;;;16.25;3.15;;;;;;;;;;5036291;28;20033;-77
2022/07/17 03:39:07;;;;;;;23.17;3.83;;;;;;;;;;5035380;28;20021;-76
2022/07/17 03:41:33;;;;;;;21.98;3.38;;;;;;;;;;5035278;28;20029;-76
2022/07/17 03:43:59;;;;;;;19.13;3.42;;;;;;;;;;5035316;28;20030;-77
2022/07/17 03:46:25;;;;;;;14.23;3.10;;;;;;;;;;5035504;28;20061;-76
2022/07/17 03:48:51;;;;;;;20.30;2.95;;;;;;;;;;5034258;28;20061;-76
2022/07/17 03:51:17;;;;;;;15.63;3.08;;;;;;;;;;5036627;28;20036;-76
2022/07/17 03:53:43;;;;;;;15.45;2.75;;;;;;;;;;5035076;28;20112;-76
2022/07/17 03:56:09;;;;;;;14.80;2.90;;;;;;;;;;5034517;28;20105;-76
2022/07/17 03:58:35;;;;;;;16.95;2.80;;;;;;;;;;5036450;28;20101;-75
2022/07/17 04:01:02;;;;;;;24.13;3.80;;;;;;;;;;5039650;28;20021;-78
2022/07/17 04:03:28;;;;;;;17.73;2.90;;;;;;;;;;5036460;28;20030;-77
2022/07/17 04:05:54;;;;;;;18.08;3.35;;;;;;;;;;5036849;28;20030;-76
2022/07/17 04:08:20;;;;;;;20.92;3.03;;;;;;;;;;5035081;28;20479;-77
2022/07/17 04:10:45;;;;;;;17.95;3.33;;;;;;;;;;5035282;28;20378;-76
2022/07/17 04:13:11;;;;;;;15.65;3.33;;;;;;;;;;5037525;28;20037;-76
2022/07/17 04:15:56;;;;;;;15.73;2.80;;;;;;;;;;5043976;28;20021;-76
2022/07/17 04:18:32;;;;;;;13.10;2.75;;;;;;;;;;5050370;28;20021;-76
2022/07/17 04:21:00;;;;;;;20.58;3.65;;;;;;;;;;5051700;28;20052;-76
2022/07/17 04:23:26;;;;;;;17.70;3.22;;;;;;;;;;5053877;28;20026;-76
2022/07/17 04:25:52;;;;;;;17.10;3.58;;;;;;;;;;5037746;28;20026;-77
2022/07/17 04:28:18;;;;;;;18.30;3.10;;;;;;;;;;5036256;28;20111;-76
2022/07/17 04:30:45;;;;;;;14.43;2.88;;;;;;;;;;5041585;28;20021;-77
2022/07/17 04:33:11;;;;;;;15.38;3.00;;;;;;;;;;5042147;28;20083;-77
2022/07/17 04:35:37;;;;;;;17.65;3.22;;;;;;;;;;5038383;28;20052;-76
2022/07/17 04:38:04;;;;;;;15.82;2.60;;;;;;;;;;5038958;28;20033;-76
2022/07/17 04:40:30;;;;;;;18.65;3.17;;;;;;;;;;5036678;28;20021;-77
2022/07/17 04:42:56;;;;;;;19.83;3.15;;;;;;;;;;5034656;28;20057;-77
2022/07/17 04:45:22;;;;;;;11.60;2.67;;;;;;;;;;5038513;28;20026;-77
2022/07/17 04:47:48;;;;;;;19.33;4.53;;;;;;;;;;5040526;28;20474;-77
2022/07/17 04:50:14;;;;;;;25.02;3.60;;;;;;;;;;5042382;28;20029;-76
2022/07/17 04:52:40;;;;;;;15.10;2.85;;;;;;;;;;5046416;28;20048;-75
2022/07/17 04:55:06;;;;;;;12.93;2.55;;;;;;;;;;5068215;22;20490;-77
2022/07/17 04:57:32;;;;;;;18.02;2.92;;;;;;;;;;5052760;28;20067;-75
2022/07/17 04:59:58;;;;;;;19.98;3.30;;;;;;;;;;5053278;28;20470;-76
2022/07/17 05:02:24;;;;;;;16.48;3.10;;;;;;;;;;5053099;28;20025;-76
2022/07/17 05:04:50;;;;;;;17.13;3.20;;;;;;;;;;5053057;28;20031;-77
2022/07/17 05:07:17;;;;;;;16.08;2.53;;;;;;;;;;5052741;28;20029;-74
2022/07/17 05:09:42;;;;;;;15.38;2.90;;;;;;;;;;5052845;28;20504;-75
2022/07/17 05:12:08;;;;;;;13.05;2.80;;;;;;;;;;5053024;28;20025;-75
2022/07/17 05:14:35;;;;;;;13.90;2.60;;;;;;;;;;5049962;28;20025;-75
2022/07/17 05:17:02;;;;;;;20.13;2.50;;;;;;;;;;5051208;28;20067;-76
2022/07/17 05:19:28;;;;;;;18.48;3.00;;;;;;;;;;5051908;28;20474;-73
2022/07/17 05:21:54;;;;;;;11.23;2.72;;;;;;;;;;5051546;28;20029;-72
2022/07/17 05:24:20;;;;;;;13.82;2.50;;;;;;;;;;5052247;28;20025;-73
2022/07/17 05:26:46;;;;;;;11.50;2.33;;;;;;;;;;5052666;28;20035;-73
2022/07/17 05:29:12;;;;;;;17.10;2.58;;;;;;;;;;5054930;28;20060;-73
2022/07/17 05:31:38;;;;;;;13.30;2.55;;;;;;;;;;5050137;28;20029;-73
2022/07/17 05:34:04;;;;;;;13.75;2.22;;;;;;;;;;5051787;28;20056;-72
2022/07/17 05:36:30;;;;;;;14.07;2.63;;;;;;;;;;5050892;28;20485;-72
2022/07/17 05:38:56;;;;;;;19.10;2.65;;;;;;;;;;5051451;28;20381;-72
2022/07/17 05:41:22;;;;;;;12.75;2.60;;;;;;;;;;5051248;28;20504;-72
2022/07/17 05:43:48;;;;;;;12.02;2.40;;;;;;;;;;5050413;28;20218;-71
2022/07/17 05:46:14;;;;;;;9.60;2.22;;;;;;;;;;5051353;28;20029;-71
2022/07/17 05:48:40;;;;;;;17.92;2.47;;;;;;;;;;5051562;28;20046;-72
2022/07/17 05:51:06;;;;;;;19.23;2.50;;;;;;;;;;5051257;28;20029;-72
2022/07/17 05:53:32;;;;;;;10.40;2.17;;;;;;;;;;5053194;28;20074;-72
2022/07/17 05:55:58;;;;;;;42.60;21.10;;;;;;;;;;5050593;28;20140;-71
2022/07/17 05:58:24;;;;;;;15.13;3.15;;;;;;;;;;5053788;28;20028;-73
2022/07/17 06:00:50;;;;;;;17.58;2.85;;;;;;;;;;5058800;28;20394;-72
2022/07/17 06:03:16;;;;;;;16.92;2.88;;;;;;;;;;5058037;28;20021;-71
2022/07/17 06:05:42;;;;;;;13.50;2.38;;;;;;;;;;5056982;28;20021;-72
2022/07/17 06:08:08;;;;;;;10.73;2.30;;;;;;;;;;5058984;28;20025;-72
2022/07/17 06:10:35;;;;;;;14.90;2.42;;;;;;;;;;5058675;28;20039;-71
2022/07/17 06:13:01;;;;;;;16.35;2.35;;;;;;;;;;5054967;28;20438;-71
2022/07/17 06:15:27;;;;;;;12.60;2.22;;;;;;;;;;5056103;28;20025;-72
2022/07/17 06:17:53;;;;;;;13.93;2.67;;;;;;;;;;5060576;28;20068;-74
2022/07/17 06:20:19;;;;;;;10.38;1.90;;;;;;;;;;5059645;28;20408;-73
2022/07/17 06:22:46;;;;;;;15.88;2.40;;;;;;;;;;5051479;28;20103;-73
2022/07/17 06:25:12;;;;;;;12.55;2.70;;;;;;;;;;5051284;28;20025;-73
2022/07/17 06:27:42;;;;;;;12.15;2.28;;;;;;;;;;5050407;28;20075;-72
2022/07/17 06:30:12;;;;;;;11.32;2.10;;;;;;;;;;5050960;28;20079;-72
2022/07/17 06:32:38;;;;;;;9.05;1.90;;;;;;;;;;5050440;28;20024;-73
2022/07/17 06:35:05;;;;;;;11.30;2.15;;;;;;;;;;5060348;28;20055;-73
2022/07/17 06:37:31;;;;;;;15.15;2.55;;;;;;;;;;5052721;28;20061;-73
2022/07/17 06:39:56;;;;;;;13.07;2.45;;;;;;;;;;5051078;28;20028;-72
2022/07/17 06:42:22;;;;;;;14.40;2.15;;;;;;;;;;5050900;28;20028;-73
2022/07/17 06:44:48;;;;;;;9.05;2.38;;;;;;;;;;5050621;28;20025;-73
2022/07/17 06:47:14;;;;;;;8.32;2.03;;;;;;;;;;5050580;28;20413;-72
2022/07/17 06:49:40;;;;;;;16.13;2.70;;;;;;;;;;5049374;28;20043;-73
2022/07/17 06:52:06;;;;;;;13.23;2.42;;;;;;;;;;5050643;28;20482;-72
2022/07/17 06:54:32;;;;;;;14.27;2.30;;;;;;;;;;5050800;28;20033;-71
2022/07/17 06:56:58;;;;;;;17.60;2.55;;;;;;;;;;5050063;28;20082;-71
2022/07/17 06:59:24;;;;;;;17.83;2.53;;;;;;;;;;5050560;28;20108;-72
2022/07/17 07:01:50;;;;;;;14.65;2.92;;;;;;;;;;5048961;28;20029;-72
2022/07/17 07:04:16;;;;;;;10.57;2.65;;;;;;;;;;5050742;28;20495;-72
2022/07/17 07:06:42;;;;;;;11.88;2.47;;;;;;;;;;5051158;28;20394;-71
2022/07/17 07:09:11;;;;;;;13.40;2.22;;;;;;;;;;5054609;28;20397;-71
2022/07/17 07:11:37;;;;;;;15.63;2.40;;;;;;;;;;5053913;28;20496;-73
2022/07/17 07:14:03;;;;;;;11.80;2.40;;;;;;;;;;5054266;28;20025;-71
2022/07/17 07:16:29;;;;;;;16.30;2.25;;;;;;;;;;5051126;28;20032;-72
2022/07/17 07:18:55;;;;;;;18.00;3.28;;;;;;;;;;5054026;28;20029;-71
2022/07/17 07:21:22;;;;;;;14.13;2.60;;;;;;;;;;5053812;28;20100;-71
2022/07/17 07:23:48;;;;;;;17.20;3.42;;;;;;;;;;5053901;28;20066;-71
2022/07/17 07:26:15;;;;;;;12.98;2.50;;;;;;;;;;5054354;28;20025;-73
2022/07/17 07:28:41;;;;;;;13.20;2.55;;;;;;;;;;5053019;28;20053;-72
2022/07/17 07:31:06;;;;;;;12.68;2.63;;;;;;;;;;5052801;28;20036;-72
2022/07/17 07:33:32;;;;;;;11.77;2.55;;;;;;;;;;5053733;28;20366;-72
2022/07/17 07:35:59;;;;;;;13.90;2.05;;;;;;;;;;5053274;28;20070;-72
2022/07/17 07:38:25;;;;;;;14.73;2.70;;;;;;;;;;5053753;28;20084;-71
2022/07/17 07:40:51;;;;;;;15.25;3.00;;;;;;;;;;5053595;28;20092;-72
2022/07/17 07:43:17;;;;;;;18.38;2.42;;;;;;;;;;5053190;28;20033;-71
2022/07/17 07:45:43;;;;;;;15.63;2.72;;;;;;;;;;5053020;28;20166;-71
2022/07/17 07:48:09;;;;;;;17.15;2.10;;;;;;;;;;5053464;28;20032;-72
2022/07/17 07:50:35;;;;;;;11.18;2.22;;;;;;;;;;5052113;28;20090;-72
2022/07/17 07:53:01;;;;;;;17.10;2.90;;;;;;;;;;5053112;28;20017;-71
2022/07/17 07:55:27;;;;;;;10.65;2.47;;;;;;;;;;5052145;28;20397;-73
2022/07/17 07:58:07;;;;;;;13.95;1.95;;;;;;;;;;5053071;28;20025;-71
2022/07/17 08:00:33;;;;;;;13.80;2.38;;;;;;;;;;5053187;28;20169;-72
2022/07/17 08:02:59;;;;;;;14.05;2.60;;;;;;;;;;5052928;28;20021;-73
2022/07/17 08:05:25;;;;;;;11.63;1.85;;;;;;;;;;5051931;28;20075;-73
2022/07/17 08:07:51;;;;;;;13.68;2.17;;;;;;;;;;5052237;28;20044;-73
2022/07/17 08:10:17;;;;;;;16.02;2.05;;;;;;;;;;5052900;28;20032;-73
2022/07/17 08:12:43;;;;;;;12.82;2.33;;;;;;;;;;5053049;28;20025;-72
2022/07/17 08:15:09;;;;;;;12.05;2.13;;;;;;;;;;5053150;28;20091;-74
2022/07/17 08:17:35;;;;;;;10.27;2.15;;;;;;;;;;5056488;28;20474;-73
2022/07/17 08:20:01;;;;;;;10.85;1.92;;;;;;;;;;5053323;28;20131;-72
2022/07/17 08:22:27;;;;;;;10.60;2.38;;;;;;;;;;5052768;28;20043;-72
2022/07/17 08:24:53;;;;;;;10.77;2.08;;;;;;;;;;5053294;28;20104;-73
2022/07/17 08:27:19;;;;;;;11.10;2.10;;;;;;;;;;5052480;28;20029;-73
2022/07/17 08:29:45;;;;;;;10.18;1.95;;;;;;;;;;5052826;28;20025;-73
2022/07/17 08:32:11;;;;;;;10.20;2.33;;;;;;;;;;5052317;28;20029;-73
2022/07/17 08:34:37;;;;;;;13.90;2.42;;;;;;;;;;5052166;28;20056;-73
2022/07/17 08:37:03;;;;;;;11.63;2.55;;;;;;;;;;5052013;28;20029;-73
2022/07/17 08:39:29;;;;;;;12.55;2.03;;;;;;;;;;5053459;28;20142;-72
2022/07/17 08:41:55;;;;;;;12.98;2.45;;;;;;;;;;5052596;28;20472;-73
2022/07/17 08:44:21;;;;;;;11.95;2.47;;;;;;;;;;5052626;28;20544;-73
2022/07/17 08:46:48;;;;;;;9.27;1.90;;;;;;;;;;5052116;28;20032;-72
2022/07/17 08:49:14;;;;;;;11.82;2.25;;;;;;;;;;5052049;28;20064;-71
2022/07/17 08:51:41;;;;;;;8.77;1.95;;;;;;;;;;5052436;28;20070;-71
2022/07/17 08:54:07;;;;;;;8.48;1.70;;;;;;;;;;5052371;28;20024;-72
2022/07/17 08:56:33;;;;;;;12.20;1.50;;;;;;;;;;5051436;28;20029;-71
2022/07/17 08:58:59;;;;;;;9.52;2.80;;;;;;;;;;5054704;28;20085;-74
2022/07/17 09:01:25;;;;;;;9.52;1.90;;;;;;;;;;5052721;28;20162;-71
2022/07/17 09:04:09;;;;;;;15.95;1.92;;;;;;;;;;5052469;28;20028;-71
2022/07/17 09:06:36;;;;;;;7.07;2.10;;;;;;;;;;5051683;28;20489;-72
2022/07/17 09:09:06;;;;;;;8.65;2.17;;;;;;;;;;5052074;28;20313;-72
2022/07/17 09:11:42;;;;;;;12.13;2.35;;;;;;;;;;5052035;28;20037;-71
2022/07/17 09:14:08;;;;;;;7.05;1.90;;;;;;;;;;5051633;28;20474;-73
2022/07/17 09:16:36;;;;;;;8.65;1.70;;;;;;;;;;5049834;28;20033;-73
2022/07/17 09:19:02;;;;;;;9.68;1.90;;;;;;;;;;5053734;28;20425;-74
2022/07/17 09:21:28;;;;;;;8.80;1.73;;;;;;;;;;5055004;28;20032;-72
2022/07/17 09:24:01;;;;;;;10.80;1.67;;;;;;;;;;5053414;28;20017;-72
2022/07/17 09:26:27;;;;;;;8.30;1.52;;;;;;;;;;5051067;28;20060;-72
2022/07/17 09:28:53;;;;;;;11.30;1.90;;;;;;;;;;5051472;28;20040;-72
2022/07/17 09:31:29;;;;;;;10.35;1.45;;;;;;;;;;5051178;28;20052;-71
2022/07/17 09:33:56;;;;;;;8.50;2.25;;;;;;;;;;5051621;28;20029;-71
2022/07/17 09:36:22;;;;;;;9.73;2.03;;;;;;;;;;5050993;28;20474;-70
2022/07/17 09:38:49;;;;;;;9.07;1.90;;;;;;;;;;5051761;28;20067;-71
2022/07/17 09:41:16;;;;;;;8.13;1.80;;;;;;;;;;5051070;28;20104;-73
2022/07/17 09:43:57;;;;;;;7.57;1.75;;;;;;;;;;5051635;28;20021;-72
2022/07/17 09:46:26;;;;;;;10.60;2.08;;;;;;;;;;5050757;28;20478;-72
2022/07/17 09:48:56;;;;;;;11.07;1.80;;;;;;;;;;5051582;28;20021;-72
2022/07/17 09:51:22;;;;;;;8.13;1.70;;;;;;;;;;5051225;28;20500;-72
2022/07/17 09:53:49;;;;;;;7.18;1.65;;;;;;;;;;5052816;28;20091;-73
2022/07/17 09:56:19;;;;;;;14.98;2.33;;;;;;;;;;5054367;28;20107;-71
2022/07/17 09:58:48;;;;;;;9.98;1.88;;;;;;;;;;5051670;28;20017;-73
2022/07/17 10:01:15;;;;;;;8.18;1.90;;;;;;;;;;5051338;28;20079;-74
2022/07/17 10:03:42;;;;;;;7.25;1.40;;;;;;;;;;5051208;28;20013;-73
2022/07/17 10:06:09;;;;;;;10.38;1.73;;;;;;;;;;5050220;28;20435;-73
2022/07/17 10:08:35;;;;;;;10.43;2.05;;;;;;;;;;5051077;28;20025;-74
2022/07/17 10:11:02;;;;;;;9.38;2.40;;;;;;;;;;5050906;28;20025;-74
2022/07/17 10:13:28;;;;;;;12.52;4.20;;;;;;;;;;5050893;28;20107;-72
2022/07/17 10:15:54;;;;;;;9.35;2.78;;;;;;;;;;5050477;28;20029;-72
2022/07/17 10:18:21;;;;;;;9.00;1.85;;;;;;;;;;5050854;28;20120;-73
2022/07/17 10:20:47;;;;;;;6.05;2.60;;;;;;;;;;5050527;28;20150;-72
2022/07/17 10:23:14;;;;;;;8.50;2.05;;;;;;;;;;5050576;28;20104;-73
2022/07/17 10:25:40;;;;;;;12.20;1.70;;;;;;;;;;5050615;28;20025;-72
2022/07/17 10:28:07;;;;;;;9.65;1.83;;;;;;;;;;5050652;28;20025;-72
2022/07/17 10:30:33;;;;;;;7.20;1.50;;;;;;;;;;5049001;28;20025;-71
2022/07/17 10:33:01;;;;;;;9.88;1.80;;;;;;;;;;5048583;28;20036;-71
2022/07/17 10:35:28;;;;;;;13.18;1.63;;;;;;;;;;5048821;28;20364;-71
2022/07/17 10:37:58;;;;;;;8.10;1.40;;;;;;;;;;5052356;28;20032;-71
2022/07/17 10:40:28;;;;;;;13.13;2.28;;;;;;;;;;5049023;28;20009;-73
2022/07/17 10:42:58;;;;;;;8.27;1.73;;;;;;;;;;5052155;28;20105;-71
2022/07/17 10:45:33;;;;;;;9.95;1.75;;;;;;;;;;5051279;28;20028;-71
2022/07/17 10:48:00;;;;;;;10.65;1.48;;;;;;;;;;5052471;28;20473;-72
2022/07/17 10:50:46;;;;;;;9.07;1.80;;;;;;;;;;5054229;28;20029;-72
2022/07/17 10:53:16;;;;;;;4.82;1.45;;;;;;;;;;5051855;28;20504;-72
2022/07/17 10:55:44;;;;;;;9.77;1.92;;;;;;;;;;5050706;28;20033;-72
2022/07/17 10:58:16;;;;;;;6.30;1.65;;;;;;;;;;5051712;28;20098;-72
2022/07/17 11:00:43;;;;;;;8.32;1.75;;;;;;;;;;5053640;28;20023;-72
2022/07/17 11:03:12;;;;;;;8.90;1.92;;;;;;;;;;5054344;28;20025;-72
2022/07/17 11:05:38;;;;;;;13.68;3.38;;;;;;;;;;5053947;28;20025;-72
2022/07/17 11:08:09;;;;;;;10.90;2.17;;;;;;;;;;5054370;28;20025;-72
2022/07/17 11:10:35;;;;;;;4.97;1.42;;;;;;;;;;5062132;28;20029;-73
2022/07/17 11:13:11;;;;;;;8.07;1.88;;;;;;;;;;5104615;22;20036;-76
2022/07/17 11:15:42;;;;;;;9.70;2.65;;;;;;;;;;5109029;28;20078;-79
2022/07/17 11:18:26;;;;;;;11.30;2.53;;;;;;;;;;5110338;28;20035;-77
2022/07/17 11:20:55;;;;;;;10.10;1.70;;;;;;;;;;5110122;28;20504;-75
2022/07/17 11:23:22;;;;;;;13.35;2.13;;;;;;;;;;5088482;28;20056;-77
2022/07/17 11:26:07;;;;;;;6.90;1.80;;;;;;;;;;5100460;28;20064;-75
2022/07/17 11:28:39;;;;;;;7.35;1.95;;;;;;;;;;5092443;28;20387;-78
2022/07/17 11:31:21;;;;;;;10.23;2.47;;;;;;;;;;5096937;28;20074;-78
2022/07/17 11:33:57;;;;;;;8.68;1.52;;;;;;;;;;5096846;28;20039;-78
2022/07/17 11:36:30;;;;;;;11.20;2.08;;;;;;;;;;5099803;28;20488;-76
2022/07/17 11:38:57;;;;;;;6.80;1.85;;;;;;;;;;5099388;28;20017;-77
2022/07/17 11:41:31;;;;;;;29.63;13.07;;;;;;;;;;5100031;28;20040;-79
2022/07/17 11:43:57;;;;;;;10.10;2.23;;;;;;;;;;5102826;28;20411;-79
2022/07/17 11:46:24;;;;;;;5.80;2.03;;;;;;;;;;5100407;28;20020;-78
2022/07/17 11:48:50;;;;;;;13.18;4.30;;;;;;;;;;5099725;28;20020;-78
2022/07/17 11:51:18;;;;;;;9.23;2.30;;;;;;;;;;5096532;28;20103;-78
2022/07/17 11:53:44;;;;;;;6.53;1.70;;;;;;;;;;5106234;28;20012;-77
2022/07/17 11:56:19;;;;;;;4.25;1.48;;;;;;;;;;5109067;28;20020;-77
2022/07/17 11:58:46;;;;;;;6.25;1.98;;;;;;;;;;5110721;28;20471;-78
2022/07/17 12:01:12;;;;;;;5.82;1.65;;;;;;;;;;5103867;28;20024;-77
2022/07/17 12:03:38;;;;;;;10.02;2.55;;;;;;;;;;5109452;28;20031;-81
2022/07/17 12:06:04;;;;;;;12.18;3.38;;;;;;;;;;5103526;28;20020;-78
2022/07/17 12:08:30;;;;;;;13.40;2.92;;;;;;;;;;5101057;28;20035;-79
2022/07/17 12:11:08;;;;;;;10.32;1.90;;;;;;;;;;5100941;28;20028;-80
2022/07/17 12:13:41;;;;;;;14.32;2.17;;;;;;;;;;5100192;28;20032;-80
2022/07/17 12:16:19;;;;;;;11.07;2.65;;;;;;;;;;5099966;28;20056;-80
2022/07/17 12:18:55;;;;;;;6.90;2.33;;;;;;;;;;5099591;28;20039;-78
2022/07/17 12:21:21;;;;;;;6.68;2.25;;;;;;;;;;5101214;28;20042;-78
2022/07/17 12:23:57;;;;;;;10.38;2.50;;;;;;;;;;5101572;28;20427;-78
2022/07/17 12:26:23;;;;;;;7.28;2.33;;;;;;;;;;5101901;28;20150;-78
2022/07/17 12:28:49;;;;;;;6.18;1.67;;;;;;;;;;5102186;28;20024;-79
2022/07/17 12:31:15;;;;;;;8.82;2.13;;;;;;;;;;5101360;28;20093;-78
2022/07/17 12:33:41;;;;;;;8.45;2.05;;;;;;;;;;5100746;28;20031;-79
2022/07/17 12:36:07;;;;;;;6.22;1.63;;;;;;;;;;5101489;28;20016;-78
2022/07/17 12:38:33;;;;;;;9.50;1.70;;;;;;;;;;5099295;28;20016;-79
2022/07/17 12:40:59;;;;;;;5.90;1.23;;;;;;;;;;5101784;28;20049;-77
2022/07/17 12:43:25;;;;;;;6.18;1.60;;;;;;;;;;5103260;28;20016;-78
2022/07/17 12:45:52;;;;;;;9.60;1.90;;;;;;;;;;5101511;28;20492;-78
2022/07/17 12:48:18;;;;;;;7.07;1.30;;;;;;;;;;5101019;28;20024;-79
2022/07/17 12:50:44;;;;;;;5.03;1.50;;;;;;;;;;5102178;28;20031;-78
2022/07/17 12:53:09;;;;;;;8.45;1.77;;;;;;;;;;5096865;28;20017;-78
2022/07/17 12:55:38;;;;;;;6.88;1.48;;;;;;;;;;5105856;28;20044;-76
2022/07/17 12:58:05;;;;;;;5.50;1.55;;;;;;;;;;5115759;28;20037;-74
2022/07/17 13:00:31;;;;;;;5.20;1.30;;;;;;;;;;5104412;28;20035;-78
2022/07/17 13:02:57;;;;;;;7.10;1.35;;;;;;;;;;5101563;28;20035;-79
2022/07/17 13:05:23;;;;;;;8.32;2.30;;;;;;;;;;5099673;28;20083;-76
2022/07/17 13:07:49;;;;;;;6.53;1.45;;;;;;;;;;5100466;28;20044;-77
2022/07/17 13:10:15;;;;;;;5.85;1.52;;;;;;;;;;5105064;28;20024;-78
2022/07/17 13:12:41;;;;;;;4.75;1.40;;;;;;;;;;5101316;28;20062;-79
2022/07/17 13:15:07;;;;;;;5.53;1.50;;;;;;;;;;5101176;28;20024;-78
2022/07/17 13:17:36;;;;;;;5.97;1.38;;;;;;;;;;5100277;28;20384;-78
2022/07/17 13:20:02;;;;;;;5.55;1.60;;;;;;;;;;5100378;28;20016;-79
2022/07/17 13:22:28;;;;;;;8.00;1.70;;;;;;;;;;5103608;28;20016;-78
2022/07/17 13:24:54;;;;;;;5.28;1.42;;;;;;;;;;5108243;28;20130;-77
2022/07/17 13:27:20;;;;;;;7.25;1.20;;;;;;;;;;5110409;28;20051;-78
2022/07/17 13:29:46;;;;;;;5.65;1.70;;;;;;;;;;5102337;28;20059;-78
2022/07/17 13:32:12;;;;;;;5.97;1.50;;;;;;;;;;5101246;28;20121;-76
2022/07/17 13:34:38;;;;;;;7.50;1.50;;;;;;;;;;5101133;28;20085;-79
2022/07/17 13:37:08;;;;;;;6.72;1.63;;;;;;;;;;5102641;28;20692;-77
2022/07/17 13:39:34;;;;;;;5.13;1.58;;;;;;;;;;5115426;28;20015;-76
2022/07/17 13:42:00;;;;;;;8.10;2.15;;;;;;;;;;5114426;28;20050;-77
2022/07/17 13:44:26;;;;;;;6.75;1.35;;;;;;;;;;5118640;28;20040;-75
2022/07/17 13:46:52;;;;;;;8.27;2.40;;;;;;;;;;5117901;28;20043;-73
2022/07/17 13:49:18;;;;;;;10.80;4.55;;;;;;;;;;5118209;28;20079;-76
2022/07/17 13:51:44;;;;;;;6.80;2.28;;;;;;;;;;5115984;28;20040;-74
2022/07/17 13:54:10;;;;;;;7.25;1.52;;;;;;;;;;5110402;28;20028;-76
2022/07/17 13:56:36;;;;;;;3.83;1.40;;;;;;;;;;5104684;28;20035;-78
2022/07/17 13:59:02;;;;;;;8.73;2.15;;;;;;;;;;5100726;28;20111;-77
2022/07/17 14:01:28;;;;;;;5.22;1.35;;;;;;;;;;5099042;28;20103;-78
2022/07/17 14:03:54;;;;;;;5.07;1.70;;;;;;;;;;5097861;28;20020;-79
2022/07/17 14:06:20;;;;;;;4.63;1.67;;;;;;;;;;5098905;28;20016;-78
2022/07/17 14:08:47;;;;;;;6.03;1.90;;;;;;;;;;5099415;28;20045;-79
2022/07/17 14:11:13;;;;;;;4.00;1.40;;;;;;;;;;5098682;28;20031;-80
2022/07/17 14:13:40;;;;;;;5.85;1.48;;;;;;;;;;5098848;28;20142;-79
2022/07/17 14:16:06;;;;;;;4.18;1.58;;;;;;;;;;5097171;28;20469;-78
2022/07/17 14:18:33;;;;;;;4.47;2.10;;;;;;;;;;5096964;28;20042;-77
2022/07/17 14:20:59;;;;;;;6.22;1.90;;;;;;;;;;5098920;28;20024;-80
2022/07/17 14:23:25;;;;;;;3.80;1.42;;;;;;;;;;5099712;28;20031;-78
2022/07/17 14:25:51;;;;;;;4.15;1.35;;;;;;;;;;5099980;28;20032;-79
2022/07/17 14:28:17;;;;;;;4.80;1.83;;;;;;;;;;5100583;28;20523;-79
2022/07/17 14:30:43;;;;;;;6.72;2.03;;;;;;;;;;5099343;28;20028;-78
2022/07/17 14:33:09;;;;;;;4.05;1.75;;;;;;;;;;5097129;28;20149;-79
2022/07/17 14:35:36;;;;;;;8.18;2.67;;;;;;;;;;5099350;28;20028;-79